Terminal Aerodrome Forecast
Issued by NWS Houston/Galveston TX

Home | Current Version | Previous Version | Text Only | Print | Product List | Glossary On
Versions: 1 2 3 4 5 6 7 8 9 10 11 12 13 14 15 16 17 18 19 20 21 22 23 24 25 26 27 28 29 30 31 32 33 34 35 36 37 38 39 40 41 42 43 44
745
FTUS44 KHGX 111721
TAFHOU
TAF
KHOU 111721Z 1118/1218 25004KT P6SM SCT250
     FM120900 35009KT P6SM SCT250
      TEMPO 1215/1218 36013G21KT=

USA.gov is the U.S. government's official web portal to all federal, state and local government web resources and services.